sensor_id;sensor_type;location;lat;lon;timestamp;pressure;altitude;pressure_sealevel;temperature;humidity
17873;BME280;36318;42.620;23.338;2023-07-20T00:00:41;57441.44;;;-142.96;100.00
17873;BME280;36318;42.620;23.338;2023-07-20T00:03:12;57441.44;;;-142.96;100.00
17873;BME280;36318;42.620;23.338;2023-07-20T00:05:42;57441.44;;;-142.96;100.00
17873;BME280;36318;42.620;23.338;2023-07-20T00:08:09;57441.44;;;-142.96;100.00
17873;BME280;36318;42.620;23.338;2023-07-20T00:43:02;92744.88;;;21.31;100.00
17873;BME280;36318;42.620;23.338;2023-07-20T00:45:30;92738.38;;;21.33;100.00
17873;BME280;36318;42.620;23.338;2023-07-20T00:47:57;92737.38;;;21.34;100.00
17873;BME280;36318;42.620;23.338;2023-07-20T00:50:24;92726.19;;;21.32;100.00
17873;BME280;36318;42.620;23.338;2023-07-20T00:52:50;92730.22;;;21.28;100.00
17873;BME280;36318;42.620;23.338;2023-07-20T00:55:17;92724.59;;;21.38;100.00
17873;BME280;36318;42.620;23.338;2023-07-20T00:57:44;92725.81;;;21.35;100.00
17873;BME280;36318;42.620;23.338;2023-07-20T01:00:13;92714.16;;;21.23;100.00
17873;BME280;36318;42.620;23.338;2023-07-20T01:02:40;92721.25;;;21.16;100.00
17873;BME280;36318;42.620;23.338;2023-07-20T01:05:07;92721.03;;;21.11;100.00
17873;BME280;36318;42.620;23.338;2023-07-20T01:07:34;92722.41;;;21.07;100.00
17873;BME280;36318;42.620;23.338;2023-07-20T01:10:02;92717.06;;;21.01;100.00
17873;BME280;36318;42.620;23.338;2023-07-20T01:12:32;92723.16;;;21.01;100.00
17873;BME280;36318;42.620;23.338;2023-07-20T01:15:02;92730.84;;;20.96;100.00
17873;BME280;36318;42.620;23.338;2023-07-20T01:17:30;92736.47;;;20.86;100.00
17873;BME280;36318;42.620;23.338;2023-07-20T01:19:57;92743.41;;;20.94;100.00
17873;BME280;36318;42.620;23.338;2023-07-20T01:22:30;92743.44;;;21.01;100.00
17873;BME280;36318;42.620;23.338;2023-07-20T01:25:05;92735.59;;;20.79;100.00
17873;BME280;36318;42.620;23.338;2023-07-20T01:27:49;92731.59;;;20.83;100.00
17873;BME280;36318;42.620;23.338;2023-07-20T01:30:31;92720.81;;;20.78;100.00
17873;BME280;36318;42.620;23.338;2023-07-20T01:33:03;92725.41;;;20.70;100.00
17873;BME280;36318;42.620;23.338;2023-07-20T01:35:30;57441.44;;;-142.96;100.00
17873;BME280;36318;42.620;23.338;2023-07-20T01:37:56;57441.44;;;-142.96;100.00
17873;BME280;36318;42.620;23.338;2023-07-20T01:40:24;57441.44;;;-142.96;100.00
17873;BME280;36318;42.620;23.338;2023-07-20T01:42:52;57441.44;;;-142.96;100.00
17873;BME280;36318;42.620;23.338;2023-07-20T01:45:19;57441.44;;;-142.96;100.00
17873;BME280;36318;42.620;23.338;2023-07-20T01:47:45;57441.44;;;-142.96;100.00
17873;BME280;36318;42.620;23.338;2023-07-20T01:50:13;57441.44;;;-142.96;100.00
17873;BME280;36318;42.620;23.338;2023-07-20T01:52:40;57441.44;;;-142.96;100.00
17873;BME280;36318;42.620;23.338;2023-07-20T01:55:07;57441.44;;;-142.96;100.00
17873;BME280;36318;42.620;23.338;2023-07-20T01:57:34;57441.44;;;-142.96;100.00
17873;BME280;36318;42.620;23.338;2023-07-20T02:00:00;57441.44;;;-142.96;100.00
17873;BME280;36318;42.620;23.338;2023-07-20T02:02:27;57441.44;;;-142.96;100.00
17873;BME280;36318;42.620;23.338;2023-07-20T02:04:54;57441.44;;;-142.96;100.00
17873;BME280;36318;42.620;23.338;2023-07-20T02:07:22;57441.44;;;-142.96;100.00
17873;BME280;36318;42.620;23.338;2023-07-20T02:09:49;57441.44;;;-142.96;100.00
17873;BME280;36318;42.620;23.338;2023-07-20T02:12:15;57441.44;;;-142.96;100.00
17873;BME280;36318;42.620;23.338;2023-07-20T02:14:42;57441.44;;;-142.96;100.00
17873;BME280;36318;42.620;23.338;2023-07-20T02:17:09;57441.44;;;-142.96;100.00
17873;BME280;36318;42.620;23.338;2023-07-20T02:19:36;57441.44;;;-142.96;100.00
17873;BME280;36318;42.620;23.338;2023-07-20T02:22:03;57441.44;;;-142.96;100.00
17873;BME280;36318;42.620;23.338;2023-07-20T02:24:31;57441.44;;;-142.96;100.00
17873;BME280;36318;42.620;23.338;2023-07-20T02:26:58;57441.44;;;-142.96;100.00
17873;BME280;36318;42.620;23.338;2023-07-20T02:29:25;57441.44;;;-142.96;100.00
17873;BME280;36318;42.620;23.338;2023-07-20T02:31:51;57441.44;;;-142.96;100.00
17873;BME280;36318;42.620;23.338;2023-07-20T02:34:18;57441.44;;;-142.96;100.00
17873;BME280;36318;42.620;23.338;2023-07-20T02:36:45;57441.44;;;-142.96;100.00
17873;BME280;36318;42.620;23.338;2023-07-20T02:39:11;57441.44;;;-142.96;100.00
17873;BME280;36318;42.620;23.338;2023-07-20T02:41:39;57441.44;;;-142.96;100.00
17873;BME280;36318;42.620;23.338;2023-07-20T02:44:06;57441.44;;;-142.96;100.00
17873;BME280;36318;42.620;23.338;2023-07-20T02:46:33;57441.44;;;-142.96;100.00
17873;BME280;36318;42.620;23.338;2023-07-20T02:49:00;57441.44;;;-142.96;100.00
17873;BME280;36318;42.620;23.338;2023-07-20T02:51:27;57441.44;;;-142.96;100.00
17873;BME280;36318;42.620;23.338;2023-07-20T02:53:53;57441.44;;;-142.96;100.00
17873;BME280;36318;42.620;23.338;2023-07-20T02:56:20;57441.44;;;-142.96;100.00
17873;BME280;36318;42.620;23.338;2023-07-20T02:58:49;57441.44;;;-142.96;100.00
17873;BME280;36318;42.620;23.338;2023-07-20T03:01:16;57441.44;;;-142.96;100.00
17873;BME280;36318;42.620;23.338;2023-07-20T03:03:42;57441.44;;;-142.96;100.00
17873;BME280;36318;42.620;23.338;2023-07-20T03:06:11;57441.44;;;-142.96;100.00
17873;BME280;36318;42.620;23.338;2023-07-20T03:08:38;57441.44;;;-142.96;100.00
17873;BME280;36318;42.620;23.338;2023-07-20T03:11:06;57441.44;;;-142.96;100.00
17873;BME280;36318;42.620;23.338;2023-07-20T03:13:33;57441.44;;;-142.96;100.00
17873;BME280;36318;42.620;23.338;2023-07-20T03:16:01;57441.44;;;-142.96;100.00
17873;BME280;36318;42.620;23.338;2023-07-20T03:18:27;57441.44;;;-142.96;100.00
17873;BME280;36318;42.620;23.338;2023-07-20T03:20:54;57441.44;;;-142.96;100.00
17873;BME280;36318;42.620;23.338;2023-07-20T03:23:21;57441.44;;;-142.96;100.00
17873;BME280;36318;42.620;23.338;2023-07-20T03:25:47;57441.44;;;-142.96;100.00
17873;BME280;36318;42.620;23.338;2023-07-20T03:28:14;57441.44;;;-142.96;100.00
17873;BME280;36318;42.620;23.338;2023-07-20T03:30:41;57441.44;;;-142.96;100.00
17873;BME280;36318;42.620;23.338;2023-07-20T03:33:09;57441.44;;;-142.96;100.00
17873;BME280;36318;42.620;23.338;2023-07-20T03:35:36;57441.44;;;-142.96;100.00
17873;BME280;36318;42.620;23.338;2023-07-20T03:38:03;57441.44;;;-142.96;100.00
17873;BME280;36318;42.620;23.338;2023-07-20T03:40:29;57441.44;;;-142.96;100.00
17873;BME280;36318;42.620;23.338;2023-07-20T03:42:56;57441.44;;;-142.96;100.00
17873;BME280;36318;42.620;23.338;2023-07-20T03:45:22;57441.44;;;-142.96;100.00
17873;BME280;36318;42.620;23.338;2023-07-20T03:47:49;57441.44;;;-142.96;100.00
17873;BME280;36318;42.620;23.338;2023-07-20T03:50:18;57441.44;;;-142.96;100.00
17873;BME280;36318;42.620;23.338;2023-07-20T03:52:44;57441.44;;;-142.96;100.00
17873;BME280;36318;42.620;23.338;2023-07-20T03:55:11;57441.44;;;-142.96;100.00
17873;BME280;36318;42.620;23.338;2023-07-20T03:57:38;57441.44;;;-142.96;100.00
17873;BME280;36318;42.620;23.338;2023-07-20T04:00:05;57441.44;;;-142.96;100.00
17873;BME280;36318;42.620;23.338;2023-07-20T04:02:33;57441.44;;;-142.96;100.00
17873;BME280;36318;42.620;23.338;2023-07-20T04:04:59;57441.44;;;-142.96;100.00
17873;BME280;36318;42.620;23.338;2023-07-20T04:07:27;57441.44;;;-142.96;100.00
17873;BME280;36318;42.620;23.338;2023-07-20T04:09:54;57441.44;;;-142.96;100.00
17873;BME280;36318;42.620;23.338;2023-07-20T04:12:21;57441.44;;;-142.96;100.00
17873;BME280;36318;42.620;23.338;2023-07-20T04:14:48;57441.44;;;-142.96;100.00
17873;BME280;36318;42.620;23.338;2023-07-20T04:17:15;57441.44;;;-142.96;100.00
17873;BME280;36318;42.620;23.338;2023-07-20T04:19:41;57441.44;;;-142.96;100.00
17873;BME280;36318;42.620;23.338;2023-07-20T04:22:08;57441.44;;;-142.96;100.00
17873;BME280;36318;42.620;23.338;2023-07-20T04:24:36;57441.44;;;-142.96;100.00
17873;BME280;36318;42.620;23.338;2023-07-20T04:27:03;57441.44;;;-142.96;100.00
17873;BME280;36318;42.620;23.338;2023-07-20T04:29:30;57441.44;;;-142.96;100.00
17873;BME280;36318;42.620;23.338;2023-07-20T04:31:57;57441.44;;;-142.96;100.00
17873;BME280;36318;42.620;23.338;2023-07-20T04:34:23;57441.44;;;-142.96;100.00
17873;BME280;36318;42.620;23.338;2023-07-20T04:36:50;57441.44;;;-142.96;100.00
17873;BME280;36318;42.620;23.338;2023-07-20T04:39:17;57441.44;;;-142.96;100.00
17873;BME280;36318;42.620;23.338;2023-07-20T04:41:45;57441.44;;;-142.96;100.00
17873;BME280;36318;42.620;23.338;2023-07-20T04:44:12;57441.44;;;-142.96;100.00
17873;BME280;36318;42.620;23.338;2023-07-20T04:46:39;57441.44;;;-142.96;100.00
17873;BME280;36318;42.620;23.338;2023-07-20T04:49:07;57441.44;;;-142.96;100.00
17873;BME280;36318;42.620;23.338;2023-07-20T04:51:33;57441.44;;;-142.96;100.00
17873;BME280;36318;42.620;23.338;2023-07-20T04:54:00;57441.44;;;-142.96;100.00
17873;BME280;36318;42.620;23.338;2023-07-20T04:56:27;57441.44;;;-142.96;100.00
17873;BME280;36318;42.620;23.338;2023-07-20T04:58:55;57441.44;;;-142.96;100.00
17873;BME280;36318;42.620;23.338;2023-07-20T05:01:22;57441.44;;;-142.96;100.00
17873;BME280;36318;42.620;23.338;2023-07-20T05:03:49;57441.44;;;-142.96;100.00
17873;BME280;36318;42.620;23.338;2023-07-20T05:06:16;57441.44;;;-142.96;100.00
17873;BME280;36318;42.620;23.338;2023-07-20T05:08:43;57441.44;;;-142.96;100.00
17873;BME280;36318;42.620;23.338;2023-07-20T05:11:10;57441.44;;;-142.96;100.00
17873;BME280;36318;42.620;23.338;2023-07-20T05:13:37;57441.44;;;-142.96;100.00
17873;BME280;36318;42.620;23.338;2023-07-20T05:16:05;57441.44;;;-142.96;100.00
17873;BME280;36318;42.620;23.338;2023-07-20T05:18:32;57441.44;;;-142.96;100.00
17873;BME280;36318;42.620;23.338;2023-07-20T05:20:59;57441.44;;;-142.96;100.00
17873;BME280;36318;42.620;23.338;2023-07-20T05:23:26;57441.44;;;-142.96;100.00
17873;BME280;36318;42.620;23.338;2023-07-20T05:25:56;57441.44;;;-142.96;100.00
17873;BME280;36318;42.620;23.338;2023-07-20T05:28:23;57441.44;;;-142.96;100.00
17873;BME280;36318;42.620;23.338;2023-07-20T05:30:49;57441.44;;;-142.96;100.00
17873;BME280;36318;42.620;23.338;2023-07-20T05:33:18;57441.44;;;-142.96;100.00
17873;BME280;36318;42.620;23.338;2023-07-20T05:35:45;57441.44;;;-142.96;100.00
17873;BME280;36318;42.620;23.338;2023-07-20T05:38:11;57441.44;;;-142.96;100.00
17873;BME280;36318;42.620;23.338;2023-07-20T05:40:39;57441.44;;;-142.96;100.00
17873;BME280;36318;42.620;23.338;2023-07-20T05:43:07;57441.44;;;-142.96;100.00
17873;BME280;36318;42.620;23.338;2023-07-20T05:45:33;57441.44;;;-142.96;100.00
17873;BME280;36318;42.620;23.338;2023-07-20T05:48:00;57441.44;;;-142.96;100.00
17873;BME280;36318;42.620;23.338;2023-07-20T05:50:28;57441.44;;;-142.96;100.00
17873;BME280;36318;42.620;23.338;2023-07-20T05:52:55;57441.44;;;-142.96;100.00
17873;BME280;36318;42.620;23.338;2023-07-20T05:55:22;57441.44;;;-142.96;100.00
17873;BME280;36318;42.620;23.338;2023-07-20T05:57:48;57441.44;;;-142.96;100.00
17873;BME280;36318;42.620;23.338;2023-07-20T06:00:15;57441.44;;;-142.96;100.00
17873;BME280;36318;42.620;23.338;2023-07-20T06:02:44;57441.44;;;-142.96;100.00
17873;BME280;36318;42.620;23.338;2023-07-20T06:05:13;57441.44;;;-142.96;100.00
17873;BME280;36318;42.620;23.338;2023-07-20T06:07:41;57441.44;;;-142.96;100.00
17873;BME280;36318;42.620;23.338;2023-07-20T06:10:08;57441.44;;;-142.96;100.00
17873;BME280;36318;42.620;23.338;2023-07-20T06:12:38;57441.44;;;-142.96;100.00
17873;BME280;36318;42.620;23.338;2023-07-20T06:15:05;57441.44;;;-142.96;100.00
17873;BME280;36318;42.620;23.338;2023-07-20T06:17:32;57441.44;;;-142.96;100.00
17873;BME280;36318;42.620;23.338;2023-07-20T06:19:59;57441.44;;;-142.96;100.00
17873;BME280;36318;42.620;23.338;2023-07-20T06:22:26;57441.44;;;-142.96;100.00
17873;BME280;36318;42.620;23.338;2023-07-20T06:24:54;57441.44;;;-142.96;100.00
17873;BME280;36318;42.620;23.338;2023-07-20T06:27:20;57441.44;;;-142.96;100.00
17873;BME280;36318;42.620;23.338;2023-07-20T06:29:47;57441.44;;;-142.96;100.00
17873;BME280;36318;42.620;23.338;2023-07-20T06:32:14;57441.44;;;-142.96;100.00
17873;BME280;36318;42.620;23.338;2023-07-20T06:34:40;57441.44;;;-142.96;100.00
17873;BME280;36318;42.620;23.338;2023-07-20T06:37:07;57441.44;;;-142.96;100.00
17873;BME280;36318;42.620;23.338;2023-07-20T06:39:34;57441.44;;;-142.96;100.00
17873;BME280;36318;42.620;23.338;2023-07-20T06:42:02;57441.44;;;-142.96;100.00
17873;BME280;36318;42.620;23.338;2023-07-20T06:44:29;57441.44;;;-142.96;100.00
17873;BME280;36318;42.620;23.338;2023-07-20T06:46:56;57441.44;;;-142.96;100.00
17873;BME280;36318;42.620;23.338;2023-07-20T06:49:26;57441.44;;;-142.96;100.00
17873;BME280;36318;42.620;23.338;2023-07-20T06:51:53;57441.44;;;-142.96;100.00
17873;BME280;36318;42.620;23.338;2023-07-20T06:54:20;57441.44;;;-142.96;100.00
17873;BME280;36318;42.620;23.338;2023-07-20T06:56:46;57441.44;;;-142.96;100.00
17873;BME280;36318;42.620;23.338;2023-07-20T06:59:14;57441.44;;;-142.96;100.00
17873;BME280;36318;42.620;23.338;2023-07-20T07:01:41;57441.44;;;-142.96;100.00
17873;BME280;36318;42.620;23.338;2023-07-20T07:04:07;57441.44;;;-142.96;100.00
17873;BME280;36318;42.620;23.338;2023-07-20T07:06:34;57441.44;;;-142.96;100.00
17873;BME280;36318;42.620;23.338;2023-07-20T07:09:02;57441.44;;;-142.96;100.00
17873;BME280;36318;42.620;23.338;2023-07-20T07:11:29;57441.44;;;-142.96;100.00
17873;BME280;36318;42.620;23.338;2023-07-20T07:13:55;57441.44;;;-142.96;100.00
17873;BME280;36318;42.620;23.338;2023-07-20T07:16:23;57441.44;;;-142.96;100.00
17873;BME280;36318;42.620;23.338;2023-07-20T07:18:51;57441.44;;;-142.96;100.00
17873;BME280;36318;42.620;23.338;2023-07-20T07:21:17;57441.44;;;-142.96;100.00
17873;BME280;36318;42.620;23.338;2023-07-20T07:23:45;57441.44;;;-142.96;100.00
17873;BME280;36318;42.620;23.338;2023-07-20T07:26:12;57441.44;;;-142.96;100.00
17873;BME280;36318;42.620;23.338;2023-07-20T07:28:39;57441.44;;;-142.96;100.00
17873;BME280;36318;42.620;23.338;2023-07-20T07:31:05;57441.44;;;-142.96;100.00
17873;BME280;36318;42.620;23.338;2023-07-20T07:33:33;57441.44;;;-142.96;100.00
17873;BME280;36318;42.620;23.338;2023-07-20T07:36:00;57441.44;;;-142.96;100.00
17873;BME280;36318;42.620;23.338;2023-07-20T07:38:27;57441.44;;;-142.96;100.00
17873;BME280;36318;42.620;23.338;2023-07-20T07:40:56;57441.44;;;-142.96;100.00
17873;BME280;36318;42.620;23.338;2023-07-20T07:43:23;57441.44;;;-142.96;100.00
17873;BME280;36318;42.620;23.338;2023-07-20T07:45:49;57441.44;;;-142.96;100.00
17873;BME280;36318;42.620;23.338;2023-07-20T07:48:16;57441.44;;;-142.96;100.00
17873;BME280;36318;42.620;23.338;2023-07-20T07:50:45;57441.44;;;-142.96;100.00
17873;BME280;36318;42.620;23.338;2023-07-20T07:53:11;57441.44;;;-142.96;100.00
17873;BME280;36318;42.620;23.338;2023-07-20T07:55:38;57441.44;;;-142.96;100.00
17873;BME280;36318;42.620;23.338;2023-07-20T07:58:04;57441.44;;;-142.96;100.00
17873;BME280;36318;42.620;23.338;2023-07-20T08:00:31;57441.44;;;-142.96;100.00
17873;BME280;36318;42.620;23.338;2023-07-20T08:02:58;57441.44;;;-142.96;100.00
17873;BME280;36318;42.620;23.338;2023-07-20T08:05:24;57441.44;;;-142.96;100.00
17873;BME280;36318;42.620;23.338;2023-07-20T08:07:53;57441.44;;;-142.96;100.00
17873;BME280;36318;42.620;23.338;2023-07-20T08:10:19;57441.44;;;-142.96;100.00
17873;BME280;36318;42.620;23.338;2023-07-20T08:12:46;57441.44;;;-142.96;100.00
17873;BME280;36318;42.620;23.338;2023-07-20T08:15:13;57441.44;;;-142.96;100.00
17873;BME280;36318;42.620;23.338;2023-07-20T08:17:40;57441.44;;;-142.96;100.00
17873;BME280;36318;42.620;23.338;2023-07-20T08:20:07;57441.44;;;-142.96;100.00
17873;BME280;36318;42.620;23.338;2023-07-20T08:22:36;57441.44;;;-142.96;100.00
17873;BME280;36318;42.620;23.338;2023-07-20T08:25:04;57441.44;;;-142.96;100.00
17873;BME280;36318;42.620;23.338;2023-07-20T08:27:31;57441.44;;;-142.96;100.00
17873;BME280;36318;42.620;23.338;2023-07-20T08:29:58;57441.44;;;-142.96;100.00
17873;BME280;36318;42.620;23.338;2023-07-20T08:32:25;57441.44;;;-142.96;100.00
17873;BME280;36318;42.620;23.338;2023-07-20T08:34:52;57441.44;;;-142.96;100.00
17873;BME280;36318;42.620;23.338;2023-07-20T08:37:19;57441.44;;;-142.96;100.00
17873;BME280;36318;42.620;23.338;2023-07-20T08:39:45;57441.44;;;-142.96;100.00
17873;BME280;36318;42.620;23.338;2023-07-20T08:42:13;57441.44;;;-142.96;100.00
17873;BME280;36318;42.620;23.338;2023-07-20T08:44:41;57441.44;;;-142.96;100.00
17873;BME280;36318;42.620;23.338;2023-07-20T08:47:08;57441.44;;;-142.96;100.00
17873;BME280;36318;42.620;23.338;2023-07-20T08:49:35;57441.44;;;-142.96;100.00
17873;BME280;36318;42.620;23.338;2023-07-20T08:52:02;57441.44;;;-142.96;100.00
17873;BME280;36318;42.620;23.338;2023-07-20T08:54:30;57441.44;;;-142.96;100.00
17873;BME280;36318;42.620;23.338;2023-07-20T08:56:58;57441.44;;;-142.96;100.00
17873;BME280;36318;42.620;23.338;2023-07-20T08:59:29;57441.44;;;-142.96;100.00
17873;BME280;36318;42.620;23.338;2023-07-20T09:01:56;57441.44;;;-142.96;100.00
17873;BME280;36318;42.620;23.338;2023-07-20T09:04:23;57441.44;;;-142.96;100.00
17873;BME280;36318;42.620;23.338;2023-07-20T09:06:50;57441.44;;;-142.96;100.00
17873;BME280;36318;42.620;23.338;2023-07-20T09:09:17;57441.44;;;-142.96;100.00
17873;BME280;36318;42.620;23.338;2023-07-20T09:11:46;57441.44;;;-142.96;100.00
17873;BME280;36318;42.620;23.338;2023-07-20T09:14:13;57441.44;;;-142.96;100.00
17873;BME280;36318;42.620;23.338;2023-07-20T09:16:51;57441.44;;;-142.96;100.00
17873;BME280;36318;42.620;23.338;2023-07-20T09:19:18;57441.44;;;-142.96;100.00
17873;BME280;36318;42.620;23.338;2023-07-20T09:21:45;57441.44;;;-142.96;100.00
17873;BME280;36318;42.620;23.338;2023-07-20T09:24:12;57441.44;;;-142.96;100.00
17873;BME280;36318;42.620;23.338;2023-07-20T09:26:42;57441.44;;;-142.96;100.00
17873;BME280;36318;42.620;23.338;2023-07-20T09:29:09;57441.44;;;-142.96;100.00
17873;BME280;36318;42.620;23.338;2023-07-20T09:31:36;57441.44;;;-142.96;100.00
17873;BME280;36318;42.620;23.338;2023-07-20T09:34:04;57441.44;;;-142.96;100.00
17873;BME280;36318;42.620;23.338;2023-07-20T09:36:33;57441.44;;;-142.96;100.00
17873;BME280;36318;42.620;23.338;2023-07-20T09:38:59;57441.44;;;-142.96;100.00
17873;BME280;36318;42.620;23.338;2023-07-20T09:41:26;57441.44;;;-142.96;100.00
17873;BME280;36318;42.620;23.338;2023-07-20T09:43:53;57441.44;;;-142.96;100.00
17873;BME280;36318;42.620;23.338;2023-07-20T09:46:20;57441.44;;;-142.96;100.00
17873;BME280;36318;42.620;23.338;2023-07-20T09:48:51;57441.44;;;-142.96;100.00
17873;BME280;36318;42.620;23.338;2023-07-20T09:51:19;57441.44;;;-142.96;100.00
17873;BME280;36318;42.620;23.338;2023-07-20T09:53:47;57441.44;;;-142.96;100.00
17873;BME280;36318;42.620;23.338;2023-07-20T09:56:15;57441.44;;;-142.96;100.00
17873;BME280;36318;42.620;23.338;2023-07-20T09:58:43;57441.44;;;-142.96;100.00
17873;BME280;36318;42.620;23.338;2023-07-20T10:01:10;57441.44;;;-142.96;100.00
17873;BME280;36318;42.620;23.338;2023-07-20T10:03:39;57441.44;;;-142.96;100.00
17873;BME280;36318;42.620;23.338;2023-07-20T10:06:08;57441.44;;;-142.96;100.00
17873;BME280;36318;42.620;23.338;2023-07-20T10:08:38;57441.44;;;-142.96;100.00
17873;BME280;36318;42.620;23.338;2023-07-20T10:11:06;57441.44;;;-142.96;100.00
17873;BME280;36318;42.620;23.338;2023-07-20T10:13:35;57441.44;;;-142.96;100.00
17873;BME280;36318;42.620;23.338;2023-07-20T10:16:06;57441.44;;;-142.96;100.00
17873;BME280;36318;42.620;23.338;2023-07-20T10:18:35;57441.44;;;-142.96;100.00
17873;BME280;36318;42.620;23.338;2023-07-20T10:21:05;57441.44;;;-142.96;100.00
17873;BME280;36318;42.620;23.338;2023-07-20T10:23:33;57441.44;;;-142.96;100.00
17873;BME280;36318;42.620;23.338;2023-07-20T10:26:02;57441.44;;;-142.96;100.00
17873;BME280;36318;42.620;23.338;2023-07-20T10:28:31;57441.44;;;-142.96;100.00
17873;BME280;36318;42.620;23.338;2023-07-20T10:30:58;57441.44;;;-142.96;100.00
17873;BME280;36318;42.620;23.338;2023-07-20T10:33:26;57441.44;;;-142.96;100.00
17873;BME280;36318;42.620;23.338;2023-07-20T10:35:54;57441.44;;;-142.96;100.00
17873;BME280;36318;42.620;23.338;2023-07-20T10:41:04;57441.44;;;-142.96;100.00
17873;BME280;36318;42.620;23.338;2023-07-20T10:43:30;57441.44;;;-142.96;100.00
17873;BME280;36318;42.620;23.338;2023-07-20T10:45:57;57441.44;;;-142.96;100.00
17873;BME280;36318;42.620;23.338;2023-07-20T10:48:24;57441.44;;;-142.96;100.00
17873;BME280;36318;42.620;23.338;2023-07-20T10:51:10;57441.44;;;-142.96;100.00
17873;BME280;36318;42.620;23.338;2023-07-20T10:53:38;57441.44;;;-142.96;100.00
17873;BME280;36318;42.620;23.338;2023-07-20T10:56:11;57441.44;;;-142.96;100.00
17873;BME280;36318;42.620;23.338;2023-07-20T10:58:38;57441.44;;;-142.96;100.00
17873;BME280;36318;42.620;23.338;2023-07-20T11:01:05;57441.44;;;-142.96;100.00
17873;BME280;36318;42.620;23.338;2023-07-20T11:03:32;57441.44;;;-142.96;100.00
17873;BME280;36318;42.620;23.338;2023-07-20T11:06:00;57441.44;;;-142.96;100.00
17873;BME280;36318;42.620;23.338;2023-07-20T11:08:48;57441.44;;;-142.96;100.00
17873;BME280;36318;42.620;23.338;2023-07-20T11:11:21;57441.44;;;-142.96;100.00
17873;BME280;36318;42.620;23.338;2023-07-20T11:13:54;57441.44;;;-142.96;100.00
17873;BME280;36318;42.620;23.338;2023-07-20T11:16:32;57441.44;;;-142.96;100.00
17873;BME280;36318;42.620;23.338;2023-07-20T11:18:59;57441.44;;;-142.96;100.00
17873;BME280;36318;42.620;23.338;2023-07-20T11:21:26;57441.44;;;-142.96;100.00
17873;BME280;36318;42.620;23.338;2023-07-20T11:23:54;57441.44;;;-142.96;100.00
17873;BME280;36318;42.620;23.338;2023-07-20T11:26:21;57441.44;;;-142.96;100.00
17873;BME280;36318;42.620;23.338;2023-07-20T11:28:48;57441.44;;;-142.96;100.00
17873;BME280;36318;42.620;23.338;2023-07-20T11:31:17;57441.44;;;-142.96;100.00
17873;BME280;36318;42.620;23.338;2023-07-20T11:33:43;57441.44;;;-142.96;100.00
17873;BME280;36318;42.620;23.338;2023-07-20T11:36:10;57441.44;;;-142.96;100.00
17873;BME280;36318;42.620;23.338;2023-07-20T11:38:37;57441.44;;;-142.96;100.00
17873;BME280;36318;42.620;23.338;2023-07-20T11:41:05;57441.44;;;-142.96;100.00
17873;BME280;36318;42.620;23.338;2023-07-20T11:43:32;57441.44;;;-142.96;100.00
17873;BME280;36318;42.620;23.338;2023-07-20T11:45:59;57441.44;;;-142.96;100.00
17873;BME280;36318;42.620;23.338;2023-07-20T11:48:26;57441.44;;;-142.96;100.00
17873;BME280;36318;42.620;23.338;2023-07-20T11:50:53;57441.44;;;-142.96;100.00
17873;BME280;36318;42.620;23.338;2023-07-20T11:53:20;57441.44;;;-142.96;100.00
17873;BME280;36318;42.620;23.338;2023-07-20T11:55:47;57441.44;;;-142.96;100.00
17873;BME280;36318;42.620;23.338;2023-07-20T11:58:15;57441.44;;;-142.96;100.00
17873;BME280;36318;42.620;23.338;2023-07-20T12:00:43;57441.44;;;-142.96;100.00
17873;BME280;36318;42.620;23.338;2023-07-20T12:03:10;57441.44;;;-142.96;100.00
17873;BME280;36318;42.620;23.338;2023-07-20T12:05:38;57441.44;;;-142.96;100.00
17873;BME280;36318;42.620;23.338;2023-07-20T12:08:05;57441.44;;;-142.96;100.00
17873;BME280;36318;42.620;23.338;2023-07-20T12:10:31;57441.44;;;-142.96;100.00
17873;BME280;36318;42.620;23.338;2023-07-20T12:13:01;57441.44;;;-142.96;100.00
17873;BME280;36318;42.620;23.338;2023-07-20T12:15:29;57441.44;;;-142.96;100.00
17873;BME280;36318;42.620;23.338;2023-07-20T12:17:57;57441.44;;;-142.96;100.00
17873;BME280;36318;42.620;23.338;2023-07-20T12:20:25;57441.44;;;-142.96;100.00
17873;BME280;36318;42.620;23.338;2023-07-20T12:22:51;57441.44;;;-142.96;100.00
17873;BME280;36318;42.620;23.338;2023-07-20T12:25:18;57441.44;;;-142.96;100.00
17873;BME280;36318;42.620;23.338;2023-07-20T12:27:45;57441.44;;;-142.96;100.00
17873;BME280;36318;42.620;23.338;2023-07-20T12:30:12;57441.44;;;-142.96;100.00
17873;BME280;36318;42.620;23.338;2023-07-20T12:32:40;57441.44;;;-142.96;100.00
17873;BME280;36318;42.620;23.338;2023-07-20T12:35:07;57441.44;;;-142.96;100.00
17873;BME280;36318;42.620;23.338;2023-07-20T12:37:34;57441.44;;;-142.96;100.00
17873;BME280;36318;42.620;23.338;2023-07-20T12:40:01;57441.44;;;-142.96;100.00
17873;BME280;36318;42.620;23.338;2023-07-20T12:42:29;57441.44;;;-142.96;100.00
17873;BME280;36318;42.620;23.338;2023-07-20T12:44:55;57441.44;;;-142.96;100.00
17873;BME280;36318;42.620;23.338;2023-07-20T12:47:22;57441.44;;;-142.96;100.00
17873;BME280;36318;42.620;23.338;2023-07-20T12:49:50;57441.44;;;-142.96;100.00
17873;BME280;36318;42.620;23.338;2023-07-20T12:52:17;57441.44;;;-142.96;100.00
17873;BME280;36318;42.620;23.338;2023-07-20T12:54:43;57441.44;;;-142.96;100.00
17873;BME280;36318;42.620;23.338;2023-07-20T12:57:10;57441.44;;;-142.96;100.00